sensor_id;sensor_type;location;lat;lon;timestamp;temperature;humidity
76996;DHT22;65929;49.062;10.338;2022-12-10T00:00:25;-0.70;84.30
76996;DHT22;65929;49.062;10.338;2022-12-10T00:01:31;-0.70;84.30
76996;DHT22;65929;49.062;10.338;2022-12-10T00:02:41;-0.70;84.40
76996;DHT22;65929;49.062;10.338;2022-12-10T00:03:42;-0.70;84.50
76996;DHT22;65929;49.062;10.338;2022-12-10T00:04:44;-0.70;84.50
76996;DHT22;65929;49.062;10.338;2022-12-10T00:05:45;-0.70;84.30
76996;DHT22;65929;49.062;10.338;2022-12-10T00:06:46;-0.70;84.20
76996;DHT22;65929;49.062;10.338;2022-12-10T00:07:47;-0.70;84.30
76996;DHT22;65929;49.062;10.338;2022-12-10T00:08:48;-0.70;84.60
76996;DHT22;65929;49.062;10.338;2022-12-10T00:09:49;-0.70;84.50
76996;DHT22;65929;49.062;10.338;2022-12-10T00:10:50;-0.70;84.60
76996;DHT22;65929;49.062;10.338;2022-12-10T00:11:57;-0.70;84.30
76996;DHT22;65929;49.062;10.338;2022-12-10T00:13:01;-0.70;84.20
76996;DHT22;65929;49.062;10.338;2022-12-10T00:14:03;-0.60;84.40
76996;DHT22;65929;49.062;10.338;2022-12-10T00:15:04;-0.60;84.60
76996;DHT22;65929;49.062;10.338;2022-12-10T00:16:08;-0.70;84.50
76996;DHT22;65929;49.062;10.338;2022-12-10T00:17:10;-0.60;84.60
76996;DHT22;65929;49.062;10.338;2022-12-10T00:18:13;-0.70;84.60
76996;DHT22;65929;49.062;10.338;2022-12-10T00:19:14;-0.60;84.50
76996;DHT22;65929;49.062;10.338;2022-12-10T00:20:15;-0.70;84.30
76996;DHT22;65929;49.062;10.338;2022-12-10T00:21:19;-0.60;84.20
76996;DHT22;65929;49.062;10.338;2022-12-10T00:22:21;-0.70;84.00
76996;DHT22;65929;49.062;10.338;2022-12-10T00:23:22;-0.70;84.00
76996;DHT22;65929;49.062;10.338;2022-12-10T00:24:23;-0.60;84.00
76996;DHT22;65929;49.062;10.338;2022-12-10T00:25:24;-0.60;83.90
76996;DHT22;65929;49.062;10.338;2022-12-10T00:26:27;-0.60;84.00
76996;DHT22;65929;49.062;10.338;2022-12-10T00:27:28;-0.70;84.00
76996;DHT22;65929;49.062;10.338;2022-12-10T00:28:29;-0.60;84.30
76996;DHT22;65929;49.062;10.338;2022-12-10T00:29:31;-0.70;84.20
76996;DHT22;65929;49.062;10.338;2022-12-10T00:30:33;-0.70;84.50
76996;DHT22;65929;49.062;10.338;2022-12-10T00:31:36;-0.60;84.40
76996;DHT22;65929;49.062;10.338;2022-12-10T00:32:37;-0.70;84.10
76996;DHT22;65929;49.062;10.338;2022-12-10T00:33:38;-0.70;84.20
76996;DHT22;65929;49.062;10.338;2022-12-10T00:34:40;-0.70;84.30
76996;DHT22;65929;49.062;10.338;2022-12-10T00:35:41;-0.70;84.20
76996;DHT22;65929;49.062;10.338;2022-12-10T00:36:45;-0.70;84.20
76996;DHT22;65929;49.062;10.338;2022-12-10T00:37:46;-0.70;84.40
76996;DHT22;65929;49.062;10.338;2022-12-10T00:38:48;-0.70;84.40
76996;DHT22;65929;49.062;10.338;2022-12-10T00:39:49;-0.70;84.50
76996;DHT22;65929;49.062;10.338;2022-12-10T00:40:50;-0.70;84.60
76996;DHT22;65929;49.062;10.338;2022-12-10T00:41:51;-0.70;84.80
76996;DHT22;65929;49.062;10.338;2022-12-10T00:42:52;-0.70;84.50
76996;DHT22;65929;49.062;10.338;2022-12-10T00:43:53;-0.70;84.20
76996;DHT22;65929;49.062;10.338;2022-12-10T00:44:55;-0.70;84.30
76996;DHT22;65929;49.062;10.338;2022-12-10T00:45:57;-0.70;84.40
76996;DHT22;65929;49.062;10.338;2022-12-10T00:46:58;-0.70;84.30
76996;DHT22;65929;49.062;10.338;2022-12-10T00:47:59;-0.70;84.20
76996;DHT22;65929;49.062;10.338;2022-12-10T00:49:00;-0.60;84.10
76996;DHT22;65929;49.062;10.338;2022-12-10T00:50:01;-0.60;84.00
76996;DHT22;65929;49.062;10.338;2022-12-10T00:51:05;-0.60;84.10
76996;DHT22;65929;49.062;10.338;2022-12-10T00:52:06;-0.60;84.10
76996;DHT22;65929;49.062;10.338;2022-12-10T00:53:23;-0.60;84.20
76996;DHT22;65929;49.062;10.338;2022-12-10T00:54:25;-0.60;84.00
76996;DHT22;65929;49.062;10.338;2022-12-10T00:55:26;-0.60;84.10
76996;DHT22;65929;49.062;10.338;2022-12-10T00:56:31;-0.60;84.30
76996;DHT22;65929;49.062;10.338;2022-12-10T00:57:33;-0.60;84.30
76996;DHT22;65929;49.062;10.338;2022-12-10T00:58:37;-0.60;84.00
76996;DHT22;65929;49.062;10.338;2022-12-10T00:59:41;-0.60;84.00
76996;DHT22;65929;49.062;10.338;2022-12-10T01:01:13;-0.60;84.00
76996;DHT22;65929;49.062;10.338;2022-12-10T01:02:15;-0.60;84.10
76996;DHT22;65929;49.062;10.338;2022-12-10T01:03:18;-0.70;84.20
76996;DHT22;65929;49.062;10.338;2022-12-10T01:04:19;-0.70;84.20
76996;DHT22;65929;49.062;10.338;2022-12-10T01:05:24;-0.70;84.30
76996;DHT22;65929;49.062;10.338;2022-12-10T01:06:47;-0.70;84.30
76996;DHT22;65929;49.062;10.338;2022-12-10T01:07:54;-0.60;84.40
76996;DHT22;65929;49.062;10.338;2022-12-10T01:09:01;-0.60;84.30
76996;DHT22;65929;49.062;10.338;2022-12-10T01:10:05;-0.60;84.40
76996;DHT22;65929;49.062;10.338;2022-12-10T01:11:10;-0.60;84.20
76996;DHT22;65929;49.062;10.338;2022-12-10T01:12:12;-0.60;84.30
76996;DHT22;65929;49.062;10.338;2022-12-10T01:13:13;-0.60;84.10
76996;DHT22;65929;49.062;10.338;2022-12-10T01:14:17;-0.60;84.00
76996;DHT22;65929;49.062;10.338;2022-12-10T01:15:27;-0.60;83.90
76996;DHT22;65929;49.062;10.338;2022-12-10T01:16:32;-0.60;83.90
76996;DHT22;65929;49.062;10.338;2022-12-10T01:17:33;-0.60;83.90
76996;DHT22;65929;49.062;10.338;2022-12-10T01:18:37;-0.60;84.00
76996;DHT22;65929;49.062;10.338;2022-12-10T01:19:48;-0.60;84.20
76996;DHT22;65929;49.062;10.338;2022-12-10T01:20:48;-0.60;84.20
76996;DHT22;65929;49.062;10.338;2022-12-10T01:21:50;-0.60;84.10
76996;DHT22;65929;49.062;10.338;2022-12-10T01:22:51;-0.60;84.00
76996;DHT22;65929;49.062;10.338;2022-12-10T01:23:53;-0.60;84.10
76996;DHT22;65929;49.062;10.338;2022-12-10T01:24:53;-0.60;84.20
76996;DHT22;65929;49.062;10.338;2022-12-10T01:25:59;-0.60;84.30
76996;DHT22;65929;49.062;10.338;2022-12-10T01:27:00;-0.60;84.30
76996;DHT22;65929;49.062;10.338;2022-12-10T01:28:01;-0.60;84.40
76996;DHT22;65929;49.062;10.338;2022-12-10T01:29:03;-0.70;84.60
76996;DHT22;65929;49.062;10.338;2022-12-10T01:30:05;-0.70;84.70
76996;DHT22;65929;49.062;10.338;2022-12-10T01:31:07;-0.70;84.70
76996;DHT22;65929;49.062;10.338;2022-12-10T01:32:10;-0.60;84.60
76996;DHT22;65929;49.062;10.338;2022-12-10T01:33:11;-0.70;84.50
76996;DHT22;65929;49.062;10.338;2022-12-10T01:34:13;-0.70;84.50
76996;DHT22;65929;49.062;10.338;2022-12-10T01:35:14;-0.60;84.60
76996;DHT22;65929;49.062;10.338;2022-12-10T01:36:17;-0.70;84.70
76996;DHT22;65929;49.062;10.338;2022-12-10T01:37:18;-0.70;84.60
76996;DHT22;65929;49.062;10.338;2022-12-10T01:38:19;-0.70;84.60
76996;DHT22;65929;49.062;10.338;2022-12-10T01:39:21;-0.70;84.60
76996;DHT22;65929;49.062;10.338;2022-12-10T01:40:22;-0.70;84.60
76996;DHT22;65929;49.062;10.338;2022-12-10T01:41:28;-0.70;84.50
76996;DHT22;65929;49.062;10.338;2022-12-10T01:42:29;-0.70;84.40
76996;DHT22;65929;49.062;10.338;2022-12-10T01:43:49;-0.70;84.50
76996;DHT22;65929;49.062;10.338;2022-12-10T01:45:09;-0.70;84.70
76996;DHT22;65929;49.062;10.338;2022-12-10T01:46:13;-0.70;84.60
76996;DHT22;65929;49.062;10.338;2022-12-10T01:47:15;-0.70;84.50
76996;DHT22;65929;49.062;10.338;2022-12-10T01:48:16;-0.70;84.60
76996;DHT22;65929;49.062;10.338;2022-12-10T01:49:19;-0.70;84.50
76996;DHT22;65929;49.062;10.338;2022-12-10T01:50:20;-0.70;84.50
76996;DHT22;65929;49.062;10.338;2022-12-10T01:51:22;-0.70;84.50
76996;DHT22;65929;49.062;10.338;2022-12-10T01:52:24;-0.70;84.60
76996;DHT22;65929;49.062;10.338;2022-12-10T01:53:25;-0.70;84.70
76996;DHT22;65929;49.062;10.338;2022-12-10T01:54:27;-0.70;84.70
76996;DHT22;65929;49.062;10.338;2022-12-10T01:55:41;-0.70;84.50
76996;DHT22;65929;49.062;10.338;2022-12-10T01:56:45;-0.70;84.40
76996;DHT22;65929;49.062;10.338;2022-12-10T01:57:47;-0.70;84.40
76996;DHT22;65929;49.062;10.338;2022-12-10T01:58:49;-0.70;84.50
76996;DHT22;65929;49.062;10.338;2022-12-10T01:59:53;-0.70;84.50
76996;DHT22;65929;49.062;10.338;2022-12-10T02:01:04;-0.70;84.60
76996;DHT22;65929;49.062;10.338;2022-12-10T02:02:12;-0.70;84.90
76996;DHT22;65929;49.062;10.338;2022-12-10T02:03:25;-0.70;84.70
76996;DHT22;65929;49.062;10.338;2022-12-10T02:04:33;-0.70;84.60
76996;DHT22;65929;49.062;10.338;2022-12-10T02:05:39;-0.70;84.60
76996;DHT22;65929;49.062;10.338;2022-12-10T02:06:48;-0.70;84.50
76996;DHT22;65929;49.062;10.338;2022-12-10T02:08:01;-0.70;84.50
76996;DHT22;65929;49.062;10.338;2022-12-10T02:09:09;-0.70;84.40
76996;DHT22;65929;49.062;10.338;2022-12-10T02:10:24;-0.70;84.30
76996;DHT22;65929;49.062;10.338;2022-12-10T02:11:31;-0.70;84.20
76996;DHT22;65929;49.062;10.338;2022-12-10T02:12:37;-0.70;84.10
76996;DHT22;65929;49.062;10.338;2022-12-10T02:13:42;-0.70;84.10
76996;DHT22;65929;49.062;10.338;2022-12-10T02:14:52;-0.70;84.10
76996;DHT22;65929;49.062;10.338;2022-12-10T02:15:59;-0.70;84.20
76996;DHT22;65929;49.062;10.338;2022-12-10T02:17:05;-0.70;84.20
76996;DHT22;65929;49.062;10.338;2022-12-10T02:18:11;-0.70;84.20
76996;DHT22;65929;49.062;10.338;2022-12-10T02:19:19;-0.70;84.30
76996;DHT22;65929;49.062;10.338;2022-12-10T02:20:26;-0.70;84.30
76996;DHT22;65929;49.062;10.338;2022-12-10T02:21:32;-0.70;84.40
76996;DHT22;65929;49.062;10.338;2022-12-10T02:22:40;-0.70;84.40
76996;DHT22;65929;49.062;10.338;2022-12-10T02:23:44;-0.70;84.50
76996;DHT22;65929;49.062;10.338;2022-12-10T02:24:47;-0.70;84.50
76996;DHT22;65929;49.062;10.338;2022-12-10T02:25:53;-0.70;84.40
76996;DHT22;65929;49.062;10.338;2022-12-10T02:27:01;-0.70;84.20
76996;DHT22;65929;49.062;10.338;2022-12-10T02:28:11;-0.60;84.10
76996;DHT22;65929;49.062;10.338;2022-12-10T02:29:16;-0.70;84.10
76996;DHT22;65929;49.062;10.338;2022-12-10T02:30:18;-0.60;84.00
76996;DHT22;65929;49.062;10.338;2022-12-10T02:31:23;-0.60;84.10
76996;DHT22;65929;49.062;10.338;2022-12-10T02:32:29;-0.60;84.00
76996;DHT22;65929;49.062;10.338;2022-12-10T02:33:35;-0.60;84.00
76996;DHT22;65929;49.062;10.338;2022-12-10T02:34:41;-0.60;84.00
76996;DHT22;65929;49.062;10.338;2022-12-10T02:35:43;-0.60;83.90
76996;DHT22;65929;49.062;10.338;2022-12-10T02:36:46;-0.60;84.00
76996;DHT22;65929;49.062;10.338;2022-12-10T02:37:50;-0.70;84.00
76996;DHT22;65929;49.062;10.338;2022-12-10T02:38:53;-0.70;84.10
76996;DHT22;65929;49.062;10.338;2022-12-10T02:39:57;-0.70;84.30
76996;DHT22;65929;49.062;10.338;2022-12-10T02:41:01;-0.70;84.40
76996;DHT22;65929;49.062;10.338;2022-12-10T02:42:04;-0.70;84.50
76996;DHT22;65929;49.062;10.338;2022-12-10T02:43:07;-0.70;84.60
76996;DHT22;65929;49.062;10.338;2022-12-10T02:44:12;-0.70;84.60
76996;DHT22;65929;49.062;10.338;2022-12-10T02:45:15;-0.70;84.70
76996;DHT22;65929;49.062;10.338;2022-12-10T02:46:16;-0.70;84.80
76996;DHT22;65929;49.062;10.338;2022-12-10T02:47:18;-0.70;84.80
76996;DHT22;65929;49.062;10.338;2022-12-10T02:48:19;-0.70;84.70
76996;DHT22;65929;49.062;10.338;2022-12-10T02:49:21;-0.70;84.70
76996;DHT22;65929;49.062;10.338;2022-12-10T02:50:24;-0.70;84.60
76996;DHT22;65929;49.062;10.338;2022-12-10T02:51:25;-0.70;84.60
76996;DHT22;65929;49.062;10.338;2022-12-10T02:52:26;-0.70;84.60
76996;DHT22;65929;49.062;10.338;2022-12-10T02:53:28;-0.70;84.70
76996;DHT22;65929;49.062;10.338;2022-12-10T02:54:38;-0.70;84.60
76996;DHT22;65929;49.062;10.338;2022-12-10T02:55:51;-0.70;84.50
76996;DHT22;65929;49.062;10.338;2022-12-10T02:56:58;-0.70;84.60
76996;DHT22;65929;49.062;10.338;2022-12-10T02:58:07;-0.70;84.50
76996;DHT22;65929;49.062;10.338;2022-12-10T02:59:18;-0.70;84.60
76996;DHT22;65929;49.062;10.338;2022-12-10T03:00:23;-0.70;84.70
76996;DHT22;65929;49.062;10.338;2022-12-10T03:01:30;-0.70;84.80
76996;DHT22;65929;49.062;10.338;2022-12-10T03:02:40;-0.70;84.90
76996;DHT22;65929;49.062;10.338;2022-12-10T03:03:45;-0.70;84.80
76996;DHT22;65929;49.062;10.338;2022-12-10T03:04:56;-0.70;84.80
76996;DHT22;65929;49.062;10.338;2022-12-10T03:06:03;-0.70;85.00
76996;DHT22;65929;49.062;10.338;2022-12-10T03:07:10;-0.70;84.90
76996;DHT22;65929;49.062;10.338;2022-12-10T03:08:16;-0.80;85.10
76996;DHT22;65929;49.062;10.338;2022-12-10T03:09:22;-0.80;85.10
76996;DHT22;65929;49.062;10.338;2022-12-10T03:10:27;-0.80;85.20
76996;DHT22;65929;49.062;10.338;2022-12-10T03:11:29;-0.80;85.10
76996;DHT22;65929;49.062;10.338;2022-12-10T03:12:35;-0.70;85.20
76996;DHT22;65929;49.062;10.338;2022-12-10T03:13:43;-0.70;85.10
76996;DHT22;65929;49.062;10.338;2022-12-10T03:14:47;-0.70;85.10
76996;DHT22;65929;49.062;10.338;2022-12-10T03:15:51;-0.70;85.00
76996;DHT22;65929;49.062;10.338;2022-12-10T03:16:55;-0.70;85.00
76996;DHT22;65929;49.062;10.338;2022-12-10T03:17:59;-0.70;85.00
76996;DHT22;65929;49.062;10.338;2022-12-10T03:19:07;-0.70;85.10
76996;DHT22;65929;49.062;10.338;2022-12-10T03:20:11;-0.70;85.20
76996;DHT22;65929;49.062;10.338;2022-12-10T03:21:15;-0.80;85.20
76996;DHT22;65929;49.062;10.338;2022-12-10T03:22:18;-0.80;85.30
76996;DHT22;65929;49.062;10.338;2022-12-10T03:23:20;-0.80;85.20
76996;DHT22;65929;49.062;10.338;2022-12-10T03:24:22;-0.80;85.20
76996;DHT22;65929;49.062;10.338;2022-12-10T03:25:26;-0.80;85.20
76996;DHT22;65929;49.062;10.338;2022-12-10T03:26:28;-0.80;85.20
76996;DHT22;65929;49.062;10.338;2022-12-10T03:27:29;-0.80;85.30
76996;DHT22;65929;49.062;10.338;2022-12-10T03:28:33;-0.80;85.30
76996;DHT22;65929;49.062;10.338;2022-12-10T03:29:39;-0.80;85.30
76996;DHT22;65929;49.062;10.338;2022-12-10T03:30:43;-0.80;85.50
76996;DHT22;65929;49.062;10.338;2022-12-10T03:31:46;-0.80;85.50
76996;DHT22;65929;49.062;10.338;2022-12-10T03:32:48;-0.80;85.40
76996;DHT22;65929;49.062;10.338;2022-12-10T03:33:49;-0.80;85.30
76996;DHT22;65929;49.062;10.338;2022-12-10T03:34:52;-0.70;85.40
76996;DHT22;65929;49.062;10.338;2022-12-10T03:35:54;-0.80;85.40
76996;DHT22;65929;49.062;10.338;2022-12-10T03:36:55;-0.80;85.40
76996;DHT22;65929;49.062;10.338;2022-12-10T03:37:56;-0.80;85.50
76996;DHT22;65929;49.062;10.338;2022-12-10T03:38:57;-0.80;85.60
76996;DHT22;65929;49.062;10.338;2022-12-10T03:39:59;-0.80;85.60
76996;DHT22;65929;49.062;10.338;2022-12-10T03:41:00;-0.80;85.70
76996;DHT22;65929;49.062;10.338;2022-12-10T03:42:01;-0.80;85.70
76996;DHT22;65929;49.062;10.338;2022-12-10T03:43:02;-0.80;85.70
76996;DHT22;65929;49.062;10.338;2022-12-10T03:44:03;-0.80;85.70
76996;DHT22;65929;49.062;10.338;2022-12-10T03:45:05;-0.80;85.80
76996;DHT22;65929;49.062;10.338;2022-12-10T03:46:06;-0.80;85.80
76996;DHT22;65929;49.062;10.338;2022-12-10T03:47:12;-0.80;85.80
76996;DHT22;65929;49.062;10.338;2022-12-10T03:48:13;-0.90;86.00
76996;DHT22;65929;49.062;10.338;2022-12-10T03:49:14;-0.80;86.00
76996;DHT22;65929;49.062;10.338;2022-12-10T03:50:15;-0.90;86.00
76996;DHT22;65929;49.062;10.338;2022-12-10T03:51:16;-0.90;86.00
76996;DHT22;65929;49.062;10.338;2022-12-10T03:52:18;-0.90;85.90
76996;DHT22;65929;49.062;10.338;2022-12-10T03:53:19;-0.90;86.00
76996;DHT22;65929;49.062;10.338;2022-12-10T03:54:20;-0.90;86.00
76996;DHT22;65929;49.062;10.338;2022-12-10T03:55:21;-0.90;86.00
76996;DHT22;65929;49.062;10.338;2022-12-10T03:56:22;-0.90;86.00
76996;DHT22;65929;49.062;10.338;2022-12-10T03:57:23;-0.90;86.10
76996;DHT22;65929;49.062;10.338;2022-12-10T03:58:24;-0.90;86.20
76996;DHT22;65929;49.062;10.338;2022-12-10T03:59:25;-0.90;86.30
76996;DHT22;65929;49.062;10.338;2022-12-10T04:00:26;-0.90;86.50
76996;DHT22;65929;49.062;10.338;2022-12-10T04:01:27;-0.90;86.40
76996;DHT22;65929;49.062;10.338;2022-12-10T04:02:30;-0.90;86.40
76996;DHT22;65929;49.062;10.338;2022-12-10T04:03:33;-0.90;86.30
76996;DHT22;65929;49.062;10.338;2022-12-10T04:04:34;-0.90;86.30
76996;DHT22;65929;49.062;10.338;2022-12-10T04:05:36;-0.80;86.40
76996;DHT22;65929;49.062;10.338;2022-12-10T04:06:38;-0.90;86.40
76996;DHT22;65929;49.062;10.338;2022-12-10T04:07:40;-0.90;86.40
76996;DHT22;65929;49.062;10.338;2022-12-10T04:08:40;-0.90;86.30
76996;DHT22;65929;49.062;10.338;2022-12-10T04:09:41;-0.90;86.30
76996;DHT22;65929;49.062;10.338;2022-12-10T04:10:42;-0.90;86.30
76996;DHT22;65929;49.062;10.338;2022-12-10T04:11:43;-0.90;86.30
76996;DHT22;65929;49.062;10.338;2022-12-10T04:12:44;-0.90;86.30
76996;DHT22;65929;49.062;10.338;2022-12-10T04:14:05;-0.90;86.40
76996;DHT22;65929;49.062;10.338;2022-12-10T04:15:25;-0.90;86.40
76996;DHT22;65929;49.062;10.338;2022-12-10T04:16:45;-0.90;86.40
76996;DHT22;65929;49.062;10.338;2022-12-10T04:17:47;-0.90;86.40
76996;DHT22;65929;49.062;10.338;2022-12-10T04:18:48;-0.90;86.50
76996;DHT22;65929;49.062;10.338;2022-12-10T04:19:49;-0.90;86.50
76996;DHT22;65929;49.062;10.338;2022-12-10T04:20:50;-0.90;86.50
76996;DHT22;65929;49.062;10.338;2022-12-10T04:22:09;-1.00;86.60
76996;DHT22;65929;49.062;10.338;2022-12-10T04:23:29;-0.90;86.80
76996;DHT22;65929;49.062;10.338;2022-12-10T04:24:48;-0.90;86.80
76996;DHT22;65929;49.062;10.338;2022-12-10T04:26:08;-0.90;86.60
76996;DHT22;65929;49.062;10.338;2022-12-10T04:27:29;-0.90;86.40
76996;DHT22;65929;49.062;10.338;2022-12-10T04:28:31;-0.90;86.40
76996;DHT22;65929;49.062;10.338;2022-12-10T04:29:32;-0.90;86.40
76996;DHT22;65929;49.062;10.338;2022-12-10T04:30:33;-1.00;86.50
76996;DHT22;65929;49.062;10.338;2022-12-10T04:31:34;-1.00;86.60
76996;DHT22;65929;49.062;10.338;2022-12-10T04:32:35;-1.00;86.70
76996;DHT22;65929;49.062;10.338;2022-12-10T04:33:37;-1.00;86.70
76996;DHT22;65929;49.062;10.338;2022-12-10T04:34:38;-1.00;86.70
76996;DHT22;65929;49.062;10.338;2022-12-10T04:35:39;-1.00;86.80
76996;DHT22;65929;49.062;10.338;2022-12-10T04:36:40;-1.00;86.70
76996;DHT22;65929;49.062;10.338;2022-12-10T04:37:41;-1.00;86.70
76996;DHT22;65929;49.062;10.338;2022-12-10T04:38:42;-1.00;86.70
76996;DHT22;65929;49.062;10.338;2022-12-10T04:39:43;-1.00;86.80
76996;DHT22;65929;49.062;10.338;2022-12-10T04:40:44;-1.00;86.80
76996;DHT22;65929;49.062;10.338;2022-12-10T04:41:46;-1.10;86.90
76996;DHT22;65929;49.062;10.338;2022-12-10T04:42:47;-1.00;86.90
76996;DHT22;65929;49.062;10.338;2022-12-10T04:43:48;-1.00;86.90
76996;DHT22;65929;49.062;10.338;2022-12-10T04:44:49;-1.00;87.00
76996;DHT22;65929;49.062;10.338;2022-12-10T04:45:50;-1.00;87.10
76996;DHT22;65929;49.062;10.338;2022-12-10T04:46:51;-1.10;87.10
76996;DHT22;65929;49.062;10.338;2022-12-10T04:47:52;-1.00;87.20
76996;DHT22;65929;49.062;10.338;2022-12-10T04:48:54;-1.00;87.30
76996;DHT22;65929;49.062;10.338;2022-12-10T04:49:55;-1.00;87.20
76996;DHT22;65929;49.062;10.338;2022-12-10T04:50:56;-1.00;87.10
76996;DHT22;65929;49.062;10.338;2022-12-10T04:52:00;-1.00;87.20
76996;DHT22;65929;49.062;10.338;2022-12-10T04:53:01;-1.00;87.20
76996;DHT22;65929;49.062;10.338;2022-12-10T04:54:02;-1.00;87.20
76996;DHT22;65929;49.062;10.338;2022-12-10T04:55:04;-1.00;87.20
76996;DHT22;65929;49.062;10.338;2022-12-10T04:56:06;-1.00;87.10
76996;DHT22;65929;49.062;10.338;2022-12-10T04:57:08;-1.00;87.20
76996;DHT22;65929;49.062;10.338;2022-12-10T04:58:09;-1.00;87.20
76996;DHT22;65929;49.062;10.338;2022-12-10T04:59:10;-1.00;87.10
76996;DHT22;65929;49.062;10.338;2022-12-10T05:00:12;-1.00;87.10
76996;DHT22;65929;49.062;10.338;2022-12-10T05:01:13;-1.00;87.10
76996;DHT22;65929;49.062;10.338;2022-12-10T05:02:14;-1.00;87.10
76996;DHT22;65929;49.062;10.338;2022-12-10T05:03:15;-1.00;87.20
76996;DHT22;65929;49.062;10.338;2022-12-10T05:04:18;-1.00;87.20
76996;DHT22;65929;49.062;10.338;2022-12-10T05:05:19;-1.00;87.10
76996;DHT22;65929;49.062;10.338;2022-12-10T05:06:20;-1.10;87.10
76996;DHT22;65929;49.062;10.338;2022-12-10T05:07:21;-1.10;87.20
76996;DHT22;65929;49.062;10.338;2022-12-10T05:08:22;-1.10;87.30
76996;DHT22;65929;49.062;10.338;2022-12-10T05:09:23;-1.10;87.20
76996;DHT22;65929;49.062;10.338;2022-12-10T05:10:24;-1.10;87.30
76996;DHT22;65929;49.062;10.338;2022-12-10T05:11:27;-1.10;87.30
76996;DHT22;65929;49.062;10.338;2022-12-10T05:12:29;-1.10;87.30
76996;DHT22;65929;49.062;10.338;2022-12-10T05:13:30;-1.10;87.40
76996;DHT22;65929;49.062;10.338;2022-12-10T05:14:31;-1.10;87.40
76996;DHT22;65929;49.062;10.338;2022-12-10T05:15:32;-1.10;87.60
76996;DHT22;65929;49.062;10.338;2022-12-10T05:16:33;-1.10;87.50
76996;DHT22;65929;49.062;10.338;2022-12-10T05:17:34;-1.10;87.50
76996;DHT22;65929;49.062;10.338;2022-12-10T05:18:36;-1.10;87.60
76996;DHT22;65929;49.062;10.338;2022-12-10T05:19:38;-1.10;87.70
76996;DHT22;65929;49.062;10.338;2022-12-10T05:20:39;-1.10;87.70
76996;DHT22;65929;49.062;10.338;2022-12-10T05:21:40;-1.10;87.60
76996;DHT22;65929;49.062;10.338;2022-12-10T05:22:59;-1.10;87.70
76996;DHT22;65929;49.062;10.338;2022-12-10T05:24:18;-1.10;87.80
76996;DHT22;65929;49.062;10.338;2022-12-10T05:25:19;-1.10;87.80
76996;DHT22;65929;49.062;10.338;2022-12-10T05:26:22;-1.10;87.90
76996;DHT22;65929;49.062;10.338;2022-12-10T05:27:23;-1.10;88.00
76996;DHT22;65929;49.062;10.338;2022-12-10T05:28:24;-1.10;87.90
76996;DHT22;65929;49.062;10.338;2022-12-10T05:29:25;-1.10;88.00
76996;DHT22;65929;49.062;10.338;2022-12-10T05:30:28;-1.10;88.00
76996;DHT22;65929;49.062;10.338;2022-12-10T05:31:30;-1.10;88.00
76996;DHT22;65929;49.062;10.338;2022-12-10T05:32:31;-1.10;88.10
76996;DHT22;65929;49.062;10.338;2022-12-10T05:33:33;-1.10;88.00
76996;DHT22;65929;49.062;10.338;2022-12-10T05:34:34;-1.10;88.00
76996;DHT22;65929;49.062;10.338;2022-12-10T05:35:36;-1.10;88.00
76996;DHT22;65929;49.062;10.338;2022-12-10T05:36:37;-1.20;88.00
76996;DHT22;65929;49.062;10.338;2022-12-10T05:37:38;-1.10;88.00
76996;DHT22;65929;49.062;10.338;2022-12-10T05:38:40;-1.10;88.00
76996;DHT22;65929;49.062;10.338;2022-12-10T05:39:41;-1.20;88.10
76996;DHT22;65929;49.062;10.338;2022-12-10T05:40:42;-1.20;88.20
76996;DHT22;65929;49.062;10.338;2022-12-10T05:41:43;-1.10;88.20
76996;DHT22;65929;49.062;10.338;2022-12-10T05:42:46;-1.10;88.20
76996;DHT22;65929;49.062;10.338;2022-12-10T05:43:47;-1.10;88.20
76996;DHT22;65929;49.062;10.338;2022-12-10T05:44:48;-1.10;88.10
76996;DHT22;65929;49.062;10.338;2022-12-10T05:45:49;-1.10;88.10
76996;DHT22;65929;49.062;10.338;2022-12-10T05:46:52;-1.20;88.10
76996;DHT22;65929;49.062;10.338;2022-12-10T05:47:53;-1.20;88.10
76996;DHT22;65929;49.062;10.338;2022-12-10T05:48:54;-1.10;88.20
76996;DHT22;65929;49.062;10.338;2022-12-10T05:49:55;-1.10;88.10
76996;DHT22;65929;49.062;10.338;2022-12-10T05:50:57;-1.10;88.10
76996;DHT22;65929;49.062;10.338;2022-12-10T05:51:58;-1.10;88.20
76996;DHT22;65929;49.062;10.338;2022-12-10T05:52:59;-1.10;88.30
76996;DHT22;65929;49.062;10.338;2022-12-10T05:54:02;-1.10;88.20
76996;DHT22;65929;49.062;10.338;2022-12-10T05:55:04;-1.10;88.10
76996;DHT22;65929;49.062;10.338;2022-12-10T05:56:07;-1.10;88.00
76996;DHT22;65929;49.062;10.338;2022-12-10T05:57:08;-1.10;87.80
76996;DHT22;65929;49.062;10.338;2022-12-10T05:58:09;-1.10;87.70
76996;DHT22;65929;49.062;10.338;2022-12-10T05:59:10;-1.10;87.70
76996;DHT22;65929;49.062;10.338;2022-12-10T06:00:12;-1.10;87.70
76996;DHT22;65929;49.062;10.338;2022-12-10T06:01:15;-1.10;87.70
76996;DHT22;65929;49.062;10.338;2022-12-10T06:02:17;-1.10;87.80
76996;DHT22;65929;49.062;10.338;2022-12-10T06:03:17;-1.10;87.90
76996;DHT22;65929;49.062;10.338;2022-12-10T06:04:18;-1.10;87.90
76996;DHT22;65929;49.062;10.338;2022-12-10T06:05:19;-1.10;87.90
76996;DHT22;65929;49.062;10.338;2022-12-10T06:06:23;-1.10;87.90
76996;DHT22;65929;49.062;10.338;2022-12-10T06:07:24;-1.00;87.90
76996;DHT22;65929;49.062;10.338;2022-12-10T06:08:26;-1.00;87.90
76996;DHT22;65929;49.062;10.338;2022-12-10T06:09:27;-1.00;88.00
76996;DHT22;65929;49.062;10.338;2022-12-10T06:10:27;-1.00;88.00
76996;DHT22;65929;49.062;10.338;2022-12-10T06:11:28;-1.00;88.00
76996;DHT22;65929;49.062;10.338;2022-12-10T06:12:30;-1.00;88.00
76996;DHT22;65929;49.062;10.338;2022-12-10T06:13:30;-1.00;87.90
76996;DHT22;65929;49.062;10.338;2022-12-10T06:14:32;-1.00;87.90
76996;DHT22;65929;49.062;10.338;2022-12-10T06:15:32;-1.00;87.80
76996;DHT22;65929;49.062;10.338;2022-12-10T06:16:33;-1.00;87.80
76996;DHT22;65929;49.062;10.338;2022-12-10T06:17:34;-1.00;87.70
76996;DHT22;65929;49.062;10.338;2022-12-10T06:18:37;-1.00;87.70
76996;DHT22;65929;49.062;10.338;2022-12-10T06:19:38;-1.00;87.70
76996;DHT22;65929;49.062;10.338;2022-12-10T06:20:39;-1.00;87.80
76996;DHT22;65929;49.062;10.338;2022-12-10T06:21:42;-1.00;87.70
76996;DHT22;65929;49.062;10.338;2022-12-10T06:22:43;-1.00;87.90
76996;DHT22;65929;49.062;10.338;2022-12-10T06:23:45;-1.00;88.00
76996;DHT22;65929;49.062;10.338;2022-12-10T06:24:46;-1.00;88.00
76996;DHT22;65929;49.062;10.338;2022-12-10T06:25:47;-1.00;88.10
76996;DHT22;65929;49.062;10.338;2022-12-10T06:26:48;-1.00;88.20
76996;DHT22;65929;49.062;10.338;2022-12-10T06:27:48;-1.00;88.20
76996;DHT22;65929;49.062;10.338;2022-12-10T06:28:49;-1.00;88.30
76996;DHT22;65929;49.062;10.338;2022-12-10T06:29:51;-1.00;88.30
76996;DHT22;65929;49.062;10.338;2022-12-10T06:30:51;-1.00;88.40
76996;DHT22;65929;49.062;10.338;2022-12-10T06:31:52;-1.00;88.40
76996;DHT22;65929;49.062;10.338;2022-12-10T06:32:53;-1.00;88.40
76996;DHT22;65929;49.062;10.338;2022-12-10T06:33:54;-1.00;88.40